createdAt,value
2017-11-26T00:00:51.892Z,2.6
2017-11-26T00:01:52.624Z,2.5
2017-11-26T00:02:53.405Z,2.7
2017-11-26T00:03:54.126Z,2.7
2017-11-26T00:04:54.949Z,2.7
2017-11-26T00:05:55.658Z,2.8
2017-11-26T00:06:56.461Z,2.8
2017-11-26T00:07:57.169Z,2.9
2017-11-26T00:08:57.890Z,2.9
2017-11-26T00:09:58.729Z,2.9
2017-11-26T00:10:59.477Z,3.0
2017-11-26T00:12:00.247Z,3.0
2017-11-26T00:13:01.041Z,3.0
2017-11-26T00:14:01.818Z,2.9
2017-11-26T00:15:02.536Z,2.9
2017-11-26T00:16:03.323Z,2.9
2017-11-26T00:17:04.039Z,3.0
2017-11-26T00:18:04.859Z,3.0
2017-11-26T00:19:05.590Z,3.0
2017-11-26T00:20:06.307Z,2.9
2017-11-26T00:21:06.982Z,3.1
2017-11-26T00:22:07.726Z,3.1
2017-11-26T00:23:08.454Z,3.1
2017-11-26T00:24:09.225Z,3.1
2017-11-26T00:25:09.942Z,3.1
2017-11-26T00:26:10.751Z,3.1
2017-11-26T00:27:11.525Z,3.1
2017-11-26T00:28:12.250Z,3.1
2017-11-26T00:30:14.487Z,3.1
2017-11-26T00:31:15.199Z,3.2
2017-11-26T00:32:15.938Z,3.1
2017-11-26T00:33:16.648Z,3.2
2017-11-26T00:34:17.460Z,3.1
2017-11-26T00:35:18.271Z,3.2
2017-11-26T00:36:19.052Z,3.2
2017-11-26T00:37:19.772Z,3.1
2017-11-26T00:38:20.559Z,3.1
2017-11-26T00:39:21.273Z,3.1
2017-11-26T00:40:22.100Z,3.1
2017-11-26T00:41:22.810Z,3.1
2017-11-26T00:42:23.578Z,3.1
2017-11-26T00:43:24.309Z,3.1
2017-11-26T00:44:25.073Z,3.1
2017-11-26T00:45:25.831Z,3.2
2017-11-26T00:46:26.546Z,3.1
2017-11-26T00:47:27.321Z,3.2
2017-11-26T00:48:28.096Z,3.2
2017-11-26T00:49:28.824Z,3.2
2017-11-26T00:50:29.597Z,3.2
2017-11-26T00:51:30.360Z,3.4
2017-11-26T00:52:31.198Z,3.3
2017-11-26T00:53:31.996Z,3.4
2017-11-26T00:54:32.717Z,3.4
2017-11-26T00:55:33.449Z,3.4
2017-11-26T00:56:34.166Z,3.4
2017-11-26T00:57:34.927Z,3.3
2017-11-26T00:58:35.648Z,3.5
2017-11-26T00:59:36.369Z,3.4
2017-11-26T01:00:37.161Z,3.5
2017-11-26T01:01:37.884Z,3.6
2017-11-26T01:02:38.656Z,3.5
2017-11-26T01:03:39.379Z,3.5
2017-11-26T01:04:40.095Z,3.6
2017-11-26T01:05:40.796Z,3.5
2017-11-26T01:06:41.522Z,3.5
2017-11-26T01:07:42.239Z,3.5
2017-11-26T01:08:42.960Z,3.5
2017-11-26T01:09:43.666Z,3.5
2017-11-26T01:10:44.375Z,3.5
2017-11-26T01:11:45.088Z,3.5
2017-11-26T01:12:45.857Z,3.5
2017-11-26T01:13:46.655Z,3.5
2017-11-26T01:14:47.370Z,3.5
2017-11-26T01:15:48.099Z,3.5
2017-11-26T01:16:48.897Z,3.6
2017-11-26T01:17:49.716Z,3.6
2017-11-26T01:18:50.436Z,3.6
2017-11-26T01:19:51.170Z,3.5
2017-11-26T01:20:51.926Z,3.5
2017-11-26T01:21:52.719Z,3.5
2017-11-26T01:22:53.509Z,3.5
2017-11-26T01:23:54.231Z,3.5
2017-11-26T01:24:55.017Z,3.5
2017-11-26T01:25:55.840Z,3.5
2017-11-26T01:26:56.529Z,3.5
2017-11-26T01:27:57.256Z,3.4
2017-11-26T01:28:58.104Z,3.4
2017-11-26T01:29:58.897Z,3.4
2017-11-26T01:30:59.700Z,3.3
2017-11-26T01:32:00.421Z,3.3
2017-11-26T01:33:01.223Z,3.2
2017-11-26T01:34:02.097Z,3.3
2017-11-26T01:35:02.803Z,3.3
2017-11-26T01:36:03.555Z,3.3
2017-11-26T01:37:04.293Z,3.3
2017-11-26T01:38:05.044Z,3.4
2017-11-26T01:39:05.789Z,3.4
2017-11-26T01:40:06.560Z,3.3
2017-11-26T01:41:07.340Z,3.3
2017-11-26T01:42:08.151Z,3.2
2017-11-26T01:43:08.878Z,3.4
2017-11-26T01:44:09.596Z,3.4
2017-11-26T01:45:10.389Z,3.4
2017-11-26T01:46:11.116Z,3.4
2017-11-26T01:47:11.938Z,3.5
2017-11-26T01:48:12.665Z,3.6
2017-11-26T01:49:13.447Z,3.5
2017-11-26T01:50:14.247Z,3.5
2017-11-26T01:51:15.065Z,3.6
2017-11-26T01:52:15.807Z,3.6
2017-11-26T01:53:16.519Z,3.5
2017-11-26T01:54:17.225Z,3.5
2017-11-26T01:55:17.957Z,3.5
2017-11-26T01:56:18.759Z,3.6
2017-11-26T01:57:19.489Z,3.5
2017-11-26T01:58:20.320Z,3.6
2017-11-26T01:59:21.053Z,3.6
2017-11-26T02:00:21.850Z,3.6
2017-11-26T02:01:22.571Z,3.6
2017-11-26T02:02:23.356Z,3.6
2017-11-26T02:03:24.102Z,3.6
2017-11-26T02:04:24.931Z,3.6
2017-11-26T02:05:25.722Z,3.6
2017-11-26T02:06:26.520Z,3.6
2017-11-26T02:07:27.309Z,3.6
2017-11-26T02:08:28.103Z,3.6
2017-11-26T02:09:28.928Z,3.6
2017-11-26T02:10:29.732Z,3.6
2017-11-26T02:11:30.475Z,3.6
2017-11-26T02:12:31.204Z,3.7
2017-11-26T02:13:31.916Z,3.6
2017-11-26T02:14:32.692Z,3.7
2017-11-26T02:15:33.346Z,3.8
2017-11-26T02:16:34.074Z,3.6
2017-11-26T02:17:34.873Z,3.7
2017-11-26T02:18:35.792Z,3.7
2017-11-26T02:19:36.474Z,3.7
2017-11-26T02:20:37.225Z,3.7
2017-11-26T02:21:37.988Z,3.8
2017-11-26T02:22:38.765Z,3.7
2017-11-26T02:23:39.677Z,3.7
2017-11-26T02:24:40.848Z,3.7
2017-11-26T02:25:41.784Z,3.7
2017-11-26T02:26:42.608Z,3.7
2017-11-26T02:27:44.782Z,3.7
2017-11-26T02:28:45.700Z,3.7
2017-11-26T02:29:46.739Z,3.7
2017-11-26T02:30:47.798Z,3.8
2017-11-26T02:31:48.905Z,3.7
2017-11-26T02:32:49.875Z,3.8
2017-11-26T02:33:50.764Z,3.8
2017-11-26T02:34:51.613Z,3.8
2017-11-26T02:35:52.487Z,3.8
2017-11-26T02:36:53.343Z,3.8
2017-11-26T02:37:54.092Z,3.7
2017-11-26T02:38:55.334Z,3.8
2017-11-26T02:39:57.206Z,3.7
2017-11-26T02:40:57.971Z,3.9
2017-11-26T02:41:58.706Z,3.9
2017-11-26T02:42:59.510Z,3.8
2017-11-26T02:44:00.239Z,3.8
2017-11-26T02:45:01.010Z,3.8
2017-11-26T02:46:01.731Z,3.8
2017-11-26T02:47:02.449Z,3.8
2017-11-26T02:48:03.223Z,3.8
2017-11-26T02:49:04.000Z,3.9
2017-11-26T02:50:04.714Z,3.8
2017-11-26T02:51:05.430Z,3.7
2017-11-26T02:52:06.150Z,3.8
2017-11-26T02:53:06.878Z,3.8
2017-11-26T02:54:07.646Z,3.8
2017-11-26T02:55:08.387Z,3.8
2017-11-26T02:56:09.138Z,3.9
2017-11-26T02:57:09.846Z,3.9
2017-11-26T02:58:10.578Z,3.8
2017-11-26T02:59:11.380Z,3.9
2017-11-26T03:00:12.110Z,3.9
2017-11-26T03:01:12.868Z,3.9
2017-11-26T03:02:13.593Z,3.9
2017-11-26T03:03:14.321Z,3.8
2017-11-26T03:04:15.095Z,3.9
2017-11-26T03:05:15.914Z,3.9
2017-11-26T03:06:16.633Z,3.9
2017-11-26T03:07:17.410Z,3.9
2017-11-26T03:08:18.124Z,4.0
2017-11-26T03:09:18.852Z,3.9
2017-11-26T03:10:19.767Z,4.0
2017-11-26T03:11:20.501Z,4.0
2017-11-26T03:12:21.301Z,4.0
2017-11-26T03:13:22.091Z,4.0
2017-11-26T03:14:22.889Z,4.0
2017-11-26T03:15:23.710Z,4.0
2017-11-26T03:16:24.476Z,4.1
2017-11-26T03:17:25.206Z,4.0
2017-11-26T03:18:25.921Z,4.0
2017-11-26T03:19:26.650Z,4.0
2017-11-26T03:20:27.419Z,3.9
2017-11-26T03:21:28.136Z,4.0
2017-11-26T03:22:28.864Z,4.0
2017-11-26T03:23:29.626Z,4.0
2017-11-26T03:24:30.421Z,4.0
2017-11-26T03:25:31.194Z,4.0
2017-11-26T03:26:31.905Z,4.0
2017-11-26T03:27:32.626Z,4.0
2017-11-26T03:28:33.358Z,4.0
2017-11-26T03:29:34.086Z,4.0
2017-11-26T03:30:34.897Z,4.0
2017-11-26T03:31:35.688Z,4.0
2017-11-26T03:32:36.417Z,4.0
2017-11-26T03:33:37.200Z,4.0
2017-11-26T03:34:37.980Z,4.1
2017-11-26T03:35:38.744Z,4.1
2017-11-26T03:36:39.475Z,4.0
2017-11-26T03:37:40.260Z,4.1
2017-11-26T03:41:16.337Z,4.0
2017-11-26T03:42:17.080Z,3.9
2017-11-26T03:43:17.788Z,3.9
2017-11-26T03:44:18.509Z,4.0
2017-11-26T03:45:19.235Z,4.1
2017-11-26T03:46:20.022Z,4.1
2017-11-26T03:47:20.733Z,4.1
2017-11-26T03:48:21.412Z,4.0
2017-11-26T03:49:22.148Z,4.0
2017-11-26T03:50:22.939Z,4.0
2017-11-26T03:51:23.684Z,4.1
2017-11-26T03:52:24.471Z,4.0
2017-11-26T03:53:25.179Z,4.0
2017-11-26T03:54:25.915Z,4.0
2017-11-26T03:55:26.640Z,4.0
2017-11-26T03:56:27.374Z,4.0
2017-11-26T03:57:28.075Z,4.0
2017-11-26T03:58:28.793Z,4.0
2017-11-26T03:59:29.531Z,4.0
2017-11-26T04:00:30.249Z,3.9
2017-11-26T04:01:30.968Z,3.9
2017-11-26T04:02:31.697Z,4.0
2017-11-26T04:03:32.478Z,4.0
2017-11-26T04:04:33.245Z,4.0
2017-11-26T04:05:33.975Z,4.0
2017-11-26T04:06:34.697Z,4.0
2017-11-26T04:07:35.435Z,4.0
2017-11-26T04:08:36.147Z,3.9
2017-11-26T04:09:36.932Z,4.0
2017-11-26T04:10:37.721Z,4.0
2017-11-26T04:11:38.505Z,4.0
2017-11-26T04:12:39.310Z,4.0
2017-11-26T04:13:40.032Z,4.0
2017-11-26T04:14:40.819Z,3.9
2017-11-26T04:15:41.596Z,4.0
2017-11-26T04:16:42.306Z,4.0
2017-11-26T04:17:43.107Z,4.0
2017-11-26T04:18:43.839Z,3.9
2017-11-26T04:19:44.636Z,4.0
2017-11-26T04:20:45.413Z,4.0
2017-11-26T04:21:46.174Z,4.0
2017-11-26T04:22:46.905Z,4.0
2017-11-26T04:23:47.664Z,4.0
2017-11-26T04:24:48.371Z,4.0
2017-11-26T04:25:49.171Z,4.0
2017-11-26T04:26:49.952Z,4.0
2017-11-26T04:27:50.659Z,4.0
2017-11-26T04:28:51.379Z,4.0
2017-11-26T04:29:52.171Z,4.1
2017-11-26T04:30:52.937Z,4.0
2017-11-26T04:31:53.706Z,4.0
2017-11-26T04:32:54.491Z,4.0
2017-11-26T04:33:55.198Z,4.0
2017-11-26T04:34:55.929Z,4.0
2017-11-26T04:35:56.712Z,4.0
2017-11-26T04:36:57.444Z,4.0
2017-11-26T04:37:58.148Z,4.0
2017-11-26T04:38:58.885Z,3.9
2017-11-26T04:39:59.672Z,4.0
2017-11-26T04:41:00.389Z,4.1
2017-11-26T04:42:01.216Z,4.1
2017-11-26T04:43:01.946Z,4.1
2017-11-26T04:44:02.706Z,4.1
2017-11-26T04:45:03.430Z,4.1
2017-11-26T04:46:04.193Z,4.1
2017-11-26T04:47:05.024Z,4.1
2017-11-26T04:48:05.757Z,4.2
2017-11-26T04:49:06.530Z,4.1
2017-11-26T04:50:07.257Z,4.1
2017-11-26T04:51:08.006Z,4.2
2017-11-26T04:52:08.819Z,4.1
2017-11-26T04:53:09.561Z,4.1
2017-11-26T04:54:10.291Z,4.2
2017-11-26T04:55:11.051Z,4.1
2017-11-26T04:56:11.862Z,4.2
2017-11-26T04:57:12.642Z,4.1
2017-11-26T04:58:13.402Z,4.1
2017-11-26T04:59:14.121Z,4.1
2017-11-26T05:00:14.909Z,4.1
2017-11-26T05:01:15.641Z,4.2
2017-11-26T05:02:16.353Z,4.0
2017-11-26T05:03:17.239Z,4.1
2017-11-26T05:04:18.009Z,4.1
2017-11-26T05:05:18.732Z,4.0
2017-11-26T05:06:19.509Z,4.0
2017-11-26T05:07:20.230Z,4.1
2017-11-26T05:08:21.110Z,4.1
2017-11-26T05:09:21.901Z,3.9
2017-11-26T05:10:22.616Z,4.0
2017-11-26T05:11:23.337Z,4.0
2017-11-26T05:12:24.119Z,3.9
2017-11-26T05:13:24.829Z,3.9
2017-11-26T05:14:25.550Z,3.9
2017-11-26T05:15:26.273Z,3.9
2017-11-26T05:16:27.169Z,4.0
2017-11-26T05:17:27.955Z,4.0
2017-11-26T05:18:28.671Z,4.0
2017-11-26T05:19:29.393Z,3.9
2017-11-26T05:20:30.112Z,4.0
2017-11-26T05:21:30.886Z,4.0
2017-11-26T05:22:31.613Z,4.0
2017-11-26T05:23:32.398Z,4.0
2017-11-26T05:24:33.126Z,3.9
2017-11-26T05:25:33.852Z,4.0
2017-11-26T05:26:34.679Z,4.1
2017-11-26T05:27:35.397Z,4.0
2017-11-26T05:28:36.120Z,4.0
2017-11-26T05:29:36.838Z,4.0
2017-11-26T05:30:37.621Z,4.0
2017-11-26T05:31:38.450Z,3.9
2017-11-26T05:32:39.162Z,3.9
2017-11-26T05:33:39.891Z,3.9
2017-11-26T05:34:40.537Z,3.9
2017-11-26T05:35:41.248Z,3.9
2017-11-26T05:36:41.957Z,3.9
2017-11-26T05:37:42.674Z,4.0
2017-11-26T05:38:43.510Z,4.0
2017-11-26T05:39:44.230Z,4.0
2017-11-26T05:40:45.021Z,4.0
2017-11-26T05:41:45.747Z,4.0
2017-11-26T05:42:46.462Z,4.0
2017-11-26T05:43:47.242Z,4.0
2017-11-26T05:44:48.045Z,4.0
2017-11-26T05:45:48.765Z,4.0
2017-11-26T05:46:49.556Z,4.0
2017-11-26T05:47:50.356Z,4.0
2017-11-26T05:48:51.143Z,4.0
2017-11-26T05:49:51.946Z,3.9
2017-11-26T05:50:52.722Z,4.0
2017-11-26T05:51:53.492Z,4.0
2017-11-26T05:52:54.224Z,4.0
2017-11-26T05:53:54.999Z,4.0
2017-11-26T05:54:55.721Z,4.0
2017-11-26T05:55:56.441Z,4.0
2017-11-26T05:56:57.240Z,4.0
2017-11-26T05:57:57.950Z,4.0
2017-11-26T05:58:58.721Z,4.0
2017-11-26T05:59:59.444Z,4.0
2017-11-26T06:01:00.236Z,4.0
2017-11-26T06:02:00.961Z,4.0
2017-11-26T06:03:01.688Z,3.9
2017-11-26T06:04:02.405Z,4.0
2017-11-26T06:05:03.129Z,4.0
2017-11-26T06:06:03.856Z,4.0
2017-11-26T06:07:04.609Z,4.0
2017-11-26T06:08:05.381Z,4.0
2017-11-26T06:09:06.161Z,3.9
2017-11-26T06:10:06.951Z,4.0
2017-11-26T06:11:07.693Z,4.0
2017-11-26T06:12:08.464Z,4.0
2017-11-26T06:13:09.176Z,4.0
2017-11-26T06:14:09.989Z,4.1
2017-11-26T06:15:10.739Z,4.0
2017-11-26T06:16:11.536Z,4.1
2017-11-26T06:17:12.261Z,4.0
2017-11-26T06:18:12.980Z,4.0
2017-11-26T06:19:13.746Z,4.0
2017-11-26T06:20:14.537Z,4.0
2017-11-26T06:21:15.318Z,4.1
2017-11-26T06:22:16.033Z,4.1
2017-11-26T06:23:16.823Z,4.1
2017-11-26T06:24:17.666Z,4.1
2017-11-26T06:25:18.380Z,4.1
2017-11-26T06:26:19.083Z,4.1
2017-11-26T06:27:19.802Z,4.1
2017-11-26T06:28:20.520Z,4.1
2017-11-26T06:29:21.240Z,4.1
2017-11-26T06:30:21.956Z,4.1
2017-11-26T06:31:22.686Z,4.0
2017-11-26T06:32:23.456Z,4.1
2017-11-26T06:33:24.237Z,4.1
2017-11-26T06:34:25.016Z,4.1
2017-11-26T06:35:25.742Z,4.1
2017-11-26T06:36:26.547Z,4.2
2017-11-26T06:37:27.408Z,4.1
2017-11-26T06:38:28.130Z,4.1
2017-11-26T06:39:28.925Z,4.1
2017-11-26T06:40:29.585Z,4.1
2017-11-26T06:41:30.311Z,4.0
2017-11-26T06:42:31.034Z,4.1
2017-11-26T06:43:31.811Z,4.1
2017-11-26T06:44:32.527Z,4.2
2017-11-26T06:45:33.311Z,4.1
2017-11-26T06:46:34.027Z,4.1
2017-11-26T06:47:34.854Z,4.1
2017-11-26T06:48:35.574Z,4.1
2017-11-26T06:49:36.351Z,4.1
2017-11-26T06:50:37.075Z,4.2
2017-11-26T06:51:37.878Z,4.2
2017-11-26T06:52:38.706Z,4.2
2017-11-26T06:53:39.484Z,4.2
2017-11-26T06:54:40.259Z,4.2
2017-11-26T06:55:40.986Z,4.2
2017-11-26T06:56:41.780Z,4.2
2017-11-26T06:57:42.550Z,4.3
2017-11-26T06:58:43.284Z,4.2
2017-11-26T06:59:44.057Z,4.2
2017-11-26T07:00:44.783Z,4.3
2017-11-26T07:01:45.573Z,4.2
2017-11-26T07:02:46.318Z,4.3
2017-11-26T07:03:47.077Z,4.3
2017-11-26T07:04:47.867Z,4.3
2017-11-26T07:05:48.588Z,4.3
2017-11-26T07:06:49.329Z,4.3
2017-11-26T07:07:50.051Z,4.3
2017-11-26T07:08:50.951Z,4.3
2017-11-26T07:09:51.666Z,4.3
2017-11-26T07:10:52.389Z,4.3
2017-11-26T07:11:53.169Z,4.3
2017-11-26T07:12:53.887Z,4.3
2017-11-26T07:13:54.705Z,4.3
2017-11-26T07:14:55.428Z,4.3
2017-11-26T07:15:56.208Z,4.3
2017-11-26T07:16:56.928Z,4.3
2017-11-26T07:17:57.652Z,4.3
2017-11-26T07:18:58.440Z,4.3
2017-11-26T07:19:59.226Z,4.3
2017-11-26T07:21:00.046Z,4.2
2017-11-26T07:22:00.771Z,4.3
2017-11-26T07:23:01.585Z,4.3
2017-11-26T07:24:02.340Z,4.2
2017-11-26T07:25:03.137Z,4.3
2017-11-26T07:26:04.024Z,4.3
2017-11-26T07:27:04.767Z,4.3
2017-11-26T07:28:05.488Z,4.3
2017-11-26T07:29:06.210Z,4.3
2017-11-26T07:30:06.940Z,4.3
2017-11-26T07:31:07.775Z,4.3
2017-11-26T07:32:08.569Z,4.2
2017-11-26T07:33:09.323Z,4.2
2017-11-26T07:34:10.099Z,4.2
2017-11-26T07:35:10.833Z,4.3
2017-11-26T07:36:11.654Z,4.3
2017-11-26T07:37:12.415Z,4.3
2017-11-26T07:38:13.143Z,4.3
2017-11-26T07:39:13.884Z,4.3
2017-11-26T07:40:14.681Z,4.3
2017-11-26T07:41:15.527Z,4.3
2017-11-26T07:42:16.330Z,4.3
2017-11-26T07:43:17.109Z,4.2
2017-11-26T07:44:17.825Z,4.3
2017-11-26T07:45:18.600Z,4.3
2017-11-26T07:46:19.355Z,4.3
2017-11-26T07:47:20.090Z,4.3
2017-11-26T07:48:20.864Z,4.3
2017-11-26T07:49:21.582Z,4.3
2017-11-26T07:50:22.310Z,4.3
2017-11-26T07:51:23.041Z,4.2
2017-11-26T07:52:23.766Z,4.3
2017-11-26T07:53:24.540Z,4.3
2017-11-26T07:54:25.269Z,4.2
2017-11-26T07:55:26.000Z,4.3
2017-11-26T07:56:26.726Z,4.3
2017-11-26T07:57:27.468Z,4.3
2017-11-26T07:58:28.219Z,4.4
2017-11-26T07:59:28.943Z,4.3
2017-11-26T08:00:29.843Z,4.3
2017-11-26T08:01:30.570Z,4.3
2017-11-26T08:02:31.351Z,4.3
2017-11-26T08:03:32.167Z,4.3
2017-11-26T08:04:32.899Z,4.3
2017-11-26T08:05:33.709Z,4.3
2017-11-26T08:06:34.435Z,4.3
2017-11-26T08:07:35.207Z,4.3
2017-11-26T08:08:36.009Z,4.3
2017-11-26T08:09:36.741Z,4.3
2017-11-26T08:10:37.563Z,4.3
2017-11-26T08:11:38.274Z,4.4
2017-11-26T08:12:38.988Z,4.3
2017-11-26T08:13:39.789Z,4.4
2017-11-26T08:14:40.520Z,4.3
2017-11-26T08:15:41.315Z,4.4
2017-11-26T08:16:42.051Z,4.4
2017-11-26T08:17:42.816Z,4.3
2017-11-26T08:18:43.608Z,4.4
2017-11-26T08:19:44.321Z,4.4
2017-11-26T08:20:45.047Z,4.4
2017-11-26T08:21:45.774Z,4.3
2017-11-26T08:22:46.615Z,4.4
2017-11-26T08:23:47.382Z,4.4
2017-11-26T08:24:48.158Z,4.5
2017-11-26T08:25:48.877Z,4.6
2017-11-26T08:26:49.605Z,4.5
2017-11-26T08:27:50.331Z,4.5
2017-11-26T08:28:51.059Z,4.6
2017-11-26T08:29:51.780Z,4.6
2017-11-26T08:30:52.589Z,4.6
2017-11-26T08:31:53.321Z,4.6
2017-11-26T08:32:54.051Z,4.5
2017-11-26T08:33:54.848Z,4.6
2017-11-26T08:34:55.666Z,4.6
2017-11-26T08:35:56.387Z,4.7
2017-11-26T08:36:57.120Z,4.7
2017-11-26T08:37:57.850Z,4.7
2017-11-26T08:38:58.600Z,4.6
2017-11-26T08:39:59.430Z,4.7
2017-11-26T08:41:00.160Z,4.7
2017-11-26T08:42:00.890Z,4.6
2017-11-26T08:43:01.623Z,4.8
2017-11-26T08:44:02.349Z,4.6
2017-11-26T08:45:03.242Z,4.7
2017-11-26T08:46:03.964Z,4.8
2017-11-26T08:47:04.773Z,4.8
2017-11-26T08:48:05.491Z,4.7
2017-11-26T08:49:06.223Z,4.7
2017-11-26T08:50:07.059Z,4.6
2017-11-26T08:51:07.790Z,4.7
2017-11-26T08:52:08.528Z,4.6
2017-11-26T08:53:09.354Z,4.7
2017-11-26T08:54:10.105Z,4.7
2017-11-26T08:55:10.931Z,4.6
2017-11-26T08:56:11.719Z,4.6
2017-11-26T08:57:12.444Z,4.7
2017-11-26T08:58:13.215Z,4.7
2017-11-26T08:59:13.959Z,4.7
2017-11-26T09:00:14.732Z,4.8
2017-11-26T09:01:15.518Z,4.7
2017-11-26T09:02:16.191Z,4.7
2017-11-26T09:03:16.958Z,4.8
2017-11-26T09:04:17.686Z,4.7
2017-11-26T09:05:18.499Z,4.8
2017-11-26T09:06:19.228Z,4.7
2017-11-26T09:07:20.041Z,4.7
2017-11-26T09:08:20.823Z,4.7
2017-11-26T09:09:21.555Z,4.7
2017-11-26T09:10:22.369Z,4.7
2017-11-26T09:11:23.156Z,4.7
2017-11-26T09:12:24.332Z,4.7
2017-11-26T09:13:25.004Z,4.7
2017-11-26T09:14:25.782Z,4.7
2017-11-26T09:15:26.518Z,4.7
2017-11-26T09:16:27.253Z,4.7
2017-11-26T09:17:28.041Z,4.7
2017-11-26T09:18:28.758Z,4.6
2017-11-26T09:19:29.490Z,4.6
2017-11-26T09:20:30.205Z,4.6
2017-11-26T09:21:31.036Z,4.7
2017-11-26T09:22:31.771Z,4.7
2017-11-26T09:23:32.525Z,4.8
2017-11-26T09:24:33.317Z,4.7
2017-11-26T09:25:34.039Z,4.8
2017-11-26T09:26:34.771Z,4.7
2017-11-26T09:27:35.550Z,4.7
2017-11-26T09:28:36.316Z,4.8
2017-11-26T09:29:37.054Z,4.8
2017-11-26T09:30:37.836Z,4.7
2017-11-26T09:31:38.618Z,4.8
2017-11-26T09:32:39.352Z,4.7
2017-11-26T09:33:40.139Z,4.7
2017-11-26T09:34:40.900Z,4.8
2017-11-26T09:35:41.677Z,4.7
2017-11-26T09:36:42.571Z,4.8
2017-11-26T09:37:43.383Z,4.8
2017-11-26T09:38:44.201Z,4.8
2017-11-26T09:39:44.891Z,4.7
2017-11-26T09:40:45.697Z,4.7
2017-11-26T09:41:46.519Z,4.7
2017-11-26T09:42:47.251Z,4.8
2017-11-26T09:43:47.981Z,4.7
2017-11-26T09:44:48.790Z,4.7
2017-11-26T09:45:49.576Z,4.8
2017-11-26T09:46:50.389Z,4.7
2017-11-26T09:47:51.116Z,4.8
2017-11-26T09:48:51.832Z,4.8
2017-11-26T09:49:52.560Z,4.8
2017-11-26T09:50:53.276Z,4.8
2017-11-26T09:51:54.071Z,4.8
2017-11-26T09:52:54.795Z,4.7
2017-11-26T09:53:55.523Z,4.8
2017-11-26T09:54:56.290Z,4.8
2017-11-26T09:55:57.017Z,4.8
2017-11-26T09:56:57.748Z,4.7
2017-11-26T09:57:58.540Z,4.7
2017-11-26T09:58:59.276Z,4.7
2017-11-26T10:00:00.000Z,4.7
2017-11-26T10:01:00.824Z,4.6
2017-11-26T10:02:01.553Z,4.6
2017-11-26T10:03:02.320Z,4.6
2017-11-26T10:04:03.109Z,4.5
2017-11-26T10:05:03.907Z,4.5
2017-11-26T10:06:04.691Z,4.4
2017-11-26T10:07:05.406Z,4.4
2017-11-26T10:08:06.120Z,4.4
2017-11-26T10:09:06.847Z,4.4
2017-11-26T10:10:07.578Z,4.4
2017-11-26T10:11:08.493Z,4.5
2017-11-26T10:12:09.246Z,4.5
2017-11-26T10:13:09.973Z,4.5
2017-11-26T10:14:10.703Z,4.5
2017-11-26T10:15:11.423Z,4.5
2017-11-26T10:16:12.263Z,4.5
2017-11-26T10:17:12.984Z,4.5
2017-11-26T10:18:13.723Z,4.5
2017-11-26T10:19:14.486Z,4.6
2017-11-26T10:20:15.207Z,4.6
2017-11-26T10:21:15.969Z,4.6
2017-11-26T10:22:16.762Z,4.6
2017-11-26T10:23:17.479Z,4.6
2017-11-26T10:24:18.199Z,4.5
2017-11-26T10:25:18.932Z,4.6
2017-11-26T10:26:19.649Z,4.6
2017-11-26T10:27:20.434Z,4.6
2017-11-26T10:28:21.165Z,4.7
2017-11-26T10:29:21.942Z,4.7
2017-11-26T10:30:22.726Z,4.6
2017-11-26T10:31:23.502Z,4.6
2017-11-26T10:32:24.281Z,4.7
2017-11-26T10:33:25.013Z,4.7
2017-11-26T10:34:25.820Z,4.6
2017-11-26T10:35:26.552Z,4.7
2017-11-26T10:36:27.371Z,4.8
2017-11-26T10:37:28.088Z,4.7
2017-11-26T10:38:28.808Z,4.7
2017-11-26T10:39:29.545Z,4.7
2017-11-26T10:40:30.326Z,4.7
2017-11-26T10:41:31.218Z,4.7
2017-11-26T10:42:31.945Z,4.6
2017-11-26T10:43:32.682Z,4.7
2017-11-26T10:44:33.459Z,4.6
2017-11-26T10:45:34.191Z,4.7
2017-11-26T10:46:35.010Z,4.6
2017-11-26T10:47:35.737Z,4.6
2017-11-26T10:48:36.470Z,4.7
2017-11-26T10:49:37.202Z,4.7
2017-11-26T10:50:37.958Z,4.7
2017-11-26T10:51:38.690Z,4.8
2017-11-26T10:52:39.473Z,4.7
2017-11-26T10:53:40.208Z,4.8
2017-11-26T10:54:41.002Z,4.7
2017-11-26T10:55:41.795Z,4.8
2017-11-26T10:56:42.531Z,4.6
2017-11-26T10:57:43.383Z,4.7
2017-11-26T10:58:44.056Z,4.7
2017-11-26T10:59:44.788Z,4.7
2017-11-26T11:00:45.510Z,4.7
2017-11-26T11:01:46.282Z,4.7
2017-11-26T11:02:47.112Z,4.8
2017-11-26T11:03:47.846Z,4.7
2017-11-26T11:04:48.571Z,4.8
2017-11-26T11:05:49.311Z,4.8
2017-11-26T11:06:50.111Z,4.9
2017-11-26T11:07:50.942Z,4.9
2017-11-26T11:08:51.684Z,4.9
2017-11-26T11:09:52.411Z,4.9
2017-11-26T11:10:53.143Z,4.9
2017-11-26T11:11:53.928Z,4.9
2017-11-26T11:12:54.753Z,5.0
2017-11-26T11:13:55.522Z,4.9
2017-11-26T11:14:56.270Z,5.0
2017-11-26T11:15:56.981Z,4.9
2017-11-26T11:16:57.709Z,4.9
2017-11-26T11:17:58.524Z,5.0
2017-11-26T11:18:59.205Z,5.1
2017-11-26T11:19:59.978Z,5.1
2017-11-26T11:21:00.763Z,5.2
2017-11-26T11:22:01.544Z,5.1
2017-11-26T11:23:02.390Z,5.2
2017-11-26T11:24:03.117Z,5.2
2017-11-26T11:25:03.855Z,5.1
2017-11-26T11:26:04.661Z,5.1
2017-11-26T11:27:05.382Z,5.0
2017-11-26T11:28:06.105Z,5.0
2017-11-26T11:29:06.825Z,5.1
2017-11-26T11:30:07.621Z,5.0
2017-11-26T11:31:08.414Z,5.0
2017-11-26T11:32:09.230Z,4.9
2017-11-26T11:33:09.975Z,4.9
2017-11-26T11:34:10.698Z,4.9
2017-11-26T11:35:11.497Z,5.0
2017-11-26T11:36:12.209Z,5.0
2017-11-26T11:37:12.934Z,5.0
2017-11-26T11:38:13.817Z,5.0
2017-11-26T11:39:14.552Z,5.1
2017-11-26T11:40:15.282Z,5.1
2017-11-26T11:41:16.002Z,5.1
2017-11-26T11:42:16.733Z,5.1
2017-11-26T11:43:17.644Z,5.1
2017-11-26T11:44:18.410Z,5.2
2017-11-26T11:45:19.219Z,5.3
2017-11-26T11:46:19.989Z,5.3
2017-11-26T11:47:20.736Z,5.5
2017-11-26T11:48:21.604Z,5.5
2017-11-26T11:49:22.387Z,5.4
2017-11-26T11:50:23.111Z,5.4
2017-11-26T11:51:23.831Z,5.4
2017-11-26T11:52:24.626Z,5.5
2017-11-26T11:53:25.450Z,5.4
2017-11-26T11:54:26.220Z,5.4
2017-11-26T11:55:27.013Z,5.5
2017-11-26T11:56:27.752Z,5.4
2017-11-26T11:57:28.501Z,5.4
2017-11-26T11:58:29.402Z,5.3
2017-11-26T11:59:30.214Z,5.3
2017-11-26T12:00:30.968Z,5.3
2017-11-26T12:01:31.692Z,5.3
2017-11-26T12:02:32.419Z,5.2
2017-11-26T12:03:33.300Z,5.3
2017-11-26T12:04:34.026Z,5.3
2017-11-26T12:05:34.797Z,5.2
2017-11-26T12:06:35.520Z,5.2
2017-11-26T12:07:36.252Z,5.3
2017-11-26T12:08:37.128Z,5.2
2017-11-26T12:09:37.880Z,5.1
2017-11-26T12:10:38.631Z,5.1
2017-11-26T12:11:39.360Z,5.2
2017-11-26T12:12:40.102Z,5.2
2017-11-26T12:13:41.003Z,5.2
2017-11-26T12:14:41.803Z,5.1
2017-11-26T12:15:42.532Z,5.2
2017-11-26T12:16:43.250Z,5.2
2017-11-26T12:17:43.975Z,5.1
2017-11-26T12:18:45.058Z,5.2
2017-11-26T12:19:45.916Z,5.1
2017-11-26T12:20:46.700Z,5.1
2017-11-26T12:21:47.517Z,5.1
2017-11-26T12:22:48.653Z,5.2
2017-11-26T12:23:49.356Z,5.1
2017-11-26T12:24:50.240Z,5.2
2017-11-26T12:25:50.957Z,5.2
2017-11-26T12:26:51.693Z,5.2
2017-11-26T12:27:52.410Z,5.2
2017-11-26T12:28:54.169Z,5.3
2017-11-26T12:29:55.002Z,5.2
2017-11-26T12:30:55.737Z,5.3
2017-11-26T12:31:56.549Z,5.3
2017-11-26T12:32:57.326Z,5.4
2017-11-26T12:33:58.114Z,5.4
2017-11-26T12:34:58.901Z,5.4
2017-11-26T12:35:59.689Z,5.4
2017-11-26T12:37:00.527Z,5.3
2017-11-26T12:38:01.261Z,5.5
2017-11-26T12:39:02.059Z,5.5
2017-11-26T12:40:02.813Z,5.5
2017-11-26T12:41:03.552Z,5.5
2017-11-26T12:42:04.454Z,5.4
2017-11-26T12:43:05.252Z,5.4
2017-11-26T12:44:05.971Z,5.5
2017-11-26T12:45:06.772Z,5.4
2017-11-26T12:46:07.559Z,5.5
2017-11-26T12:47:08.407Z,5.5
2017-11-26T12:48:09.171Z,5.5
2017-11-26T12:49:09.906Z,5.5
2017-11-26T12:50:10.746Z,5.5
2017-11-26T12:51:11.433Z,5.5
2017-11-26T12:52:12.938Z,5.5
2017-11-26T12:53:13.915Z,5.5
2017-11-26T12:54:14.696Z,5.5
2017-11-26T12:55:15.435Z,5.6
2017-11-26T12:56:16.167Z,5.5
2017-11-26T12:57:16.969Z,5.6
2017-11-26T12:58:17.857Z,5.6
2017-11-26T12:59:18.621Z,5.6
2017-11-26T13:00:19.409Z,5.5
2017-11-26T13:01:20.130Z,5.5
2017-11-26T13:02:20.894Z,5.6
2017-11-26T13:03:21.692Z,5.6
2017-11-26T13:04:22.461Z,5.6
2017-11-26T13:05:23.205Z,5.6
2017-11-26T13:06:23.989Z,5.6
2017-11-26T13:07:24.769Z,5.6
2017-11-26T13:08:25.558Z,5.5
2017-11-26T13:09:26.288Z,5.6
2017-11-26T13:10:27.456Z,5.5
2017-11-26T13:11:28.149Z,5.6
2017-11-26T13:12:28.938Z,5.5
2017-11-26T13:13:29.754Z,5.5
2017-11-26T13:14:30.486Z,5.6
2017-11-26T13:15:31.281Z,5.6
2017-11-26T13:16:32.059Z,5.6
2017-11-26T13:17:32.864Z,5.6
2017-11-26T13:18:33.648Z,5.6
2017-11-26T13:19:34.412Z,5.7
2017-11-26T13:20:35.138Z,5.6
2017-11-26T13:21:35.860Z,5.6
2017-11-26T13:22:36.588Z,5.7
2017-11-26T13:23:37.714Z,5.7
2017-11-26T13:24:38.390Z,5.6
2017-11-26T13:25:39.189Z,5.6
2017-11-26T13:26:39.957Z,5.6
2017-11-26T13:27:40.714Z,5.7
2017-11-26T13:28:41.658Z,5.7
2017-11-26T13:29:42.432Z,5.7
2017-11-26T13:30:44.115Z,5.6
2017-11-26T13:31:45.227Z,5.6
2017-11-26T13:32:45.958Z,5.6
2017-11-26T13:33:46.693Z,5.6
2017-11-26T13:34:47.413Z,5.6
2017-11-26T13:35:48.247Z,5.6
2017-11-26T13:36:48.991Z,5.5
2017-11-26T13:37:50.033Z,5.6
2017-11-26T13:38:50.708Z,5.5
2017-11-26T13:39:51.441Z,5.6
2017-11-26T13:40:52.262Z,5.6
2017-11-26T13:41:52.992Z,5.6
2017-11-26T13:42:53.785Z,5.8
2017-11-26T13:43:54.463Z,5.7
2017-11-26T13:44:55.207Z,5.7
2017-11-26T13:45:56.095Z,5.7
2017-11-26T13:46:56.832Z,5.7
2017-11-26T13:47:57.635Z,5.6
2017-11-26T13:48:58.494Z,5.7
2017-11-26T13:49:59.221Z,5.6
2017-11-26T13:51:00.100Z,5.6
2017-11-26T13:52:00.822Z,5.6
2017-11-26T13:53:01.545Z,5.7
2017-11-26T13:54:02.334Z,5.6
2017-11-26T13:55:03.075Z,5.6
2017-11-26T13:56:03.935Z,5.7
2017-11-26T13:57:04.710Z,5.7
2017-11-26T13:58:05.443Z,5.7
2017-11-26T13:59:06.204Z,5.8
2017-11-26T14:00:06.986Z,5.7
2017-11-26T14:01:07.801Z,5.7